Time;durP1;ratioP1;P1;durP2;ratioP2;P2;SDS_P1;SDS_P2;PMS_P1;PMS_P2;Temp;Humidity;BMP_temperature;BMP_pressure;BME280_temperature;BME280_humidity;BME280_pressure;Samples;Min_cycle;Max_cycle;Signal;HPM_P1;HPM_P2
2023/04/18 00:02:01;;;;;;;;;;;333.30;2022.40;;;;;;5034014;28;19909;-70
2023/04/18 00:04:27;;;;;;;;;;;333.20;2252.80;;;;;;5033958;28;19909;-70
2023/04/18 00:06:52;;;;;;;;;;;333.30;2329.60;;;;;;5034095;28;19909;-71
2023/04/18 00:09:18;;;;;;;;;;;333.30;1996.80;;;;;;5033889;28;19909;-71
2023/04/18 00:11:44;;;;;;;;;;;333.20;1971.20;;;;;;5033756;28;19912;-70
2023/04/18 00:14:10;;;;;;;;;;;333.20;2278.40;;;;;;5033803;28;19909;-71
2023/04/18 00:16:36;;;;;;;;;;;333.20;2278.40;;;;;;5033816;28;19912;-71
2023/04/18 00:19:03;;;;;;;;;;;333.20;2022.40;;;;;;5033740;28;19905;-70
2023/04/18 00:21:30;;;;;;;;;;;333.20;2329.60;;;;;;5033700;28;19906;-70
2023/04/18 00:23:56;;;;;;;;;;;333.20;2329.60;;;;;;5033626;28;19905;-70
2023/04/18 00:26:22;;;;;;;;;;;333.10;2329.60;;;;;;5033472;28;19951;-70
2023/04/18 00:28:47;;;;;;;;;;;333.10;2329.60;;;;;;5033771;28;20007;-70
2023/04/18 00:31:13;;;;;;;;;;;333.10;2329.60;;;;;;5033384;28;20345;-72
2023/04/18 00:33:38;;;;;;;;;;;333.10;2329.60;;;;;;5033383;28;20078;-71
2023/04/18 00:36:04;;;;;;;;;;;333.00;2329.60;;;;;;5033757;28;19912;-70
2023/04/18 00:38:30;;;;;;;;;;;333.00;2329.60;;;;;;5033533;28;19905;-71
2023/04/18 00:40:55;;;;;;;;;;;333.10;2304.00;;;;;;5033045;28;19915;-71
2023/04/18 00:43:24;;;;;;;;;;;333.10;2099.20;;;;;;5032798;28;19905;-70
2023/04/18 00:45:50;;;;;;;;;;;333.10;2278.40;;;;;;5033426;28;19905;-71
2023/04/18 00:48:15;;;;;;;;;;;333.10;2073.60;;;;;;5033343;28;19911;-71
2023/04/18 00:50:41;;;;;;;;;;;333.20;2329.60;;;;;;5034245;28;19986;-71
2023/04/18 00:53:08;;;;;;;;;;;333.20;2329.60;;;;;;5033108;28;19951;-71
2023/04/18 00:55:33;;;;;;;;;;;333.20;2329.60;;;;;;5032927;28;19952;-71
2023/04/18 00:57:59;;;;;;;;;;;333.20;2329.60;;;;;;5032486;28;20030;-71
2023/04/18 01:00:25;;;;;;;;;;;333.20;2329.60;;;;;;5032361;28;19912;-71
2023/04/18 01:02:54;;;;;;;;;;;333.20;2329.60;;;;;;5032608;28;19913;-71
2023/04/18 01:05:20;;;;;;;;;;;333.20;2329.60;;;;;;5032233;28;19936;-71
2023/04/18 01:07:46;;;;;;;;;;;333.20;2329.60;;;;;;5032496;28;19951;-71
2023/04/18 01:10:12;;;;;;;;;;;333.20;2329.60;;;;;;5032292;28;19945;-70
2023/04/18 01:12:38;;;;;;;;;;;333.20;2329.60;;;;;;5032203;28;19909;-71
2023/04/18 01:15:04;;;;;;;;;;;333.20;2329.60;;;;;;5032161;28;19971;-71
2023/04/18 01:17:30;;;;;;;;;;;333.20;2329.60;;;;;;5032280;28;19905;-71
2023/04/18 01:19:56;;;;;;;;;;;333.20;2150.40;;;;;;5032201;28;20272;-71
2023/04/18 01:22:22;;;;;;;;;;;333.20;2048.00;;;;;;5032273;28;19959;-71
2023/04/18 01:24:48;;;;;;;;;;;333.30;2150.40;;;;;;5032093;28;20309;-71
2023/04/18 01:27:13;;;;;;;;;;;333.30;1971.20;;;;;;5032077;28;19958;-71
2023/04/18 01:29:39;;;;;;;;;;;333.30;2329.60;;;;;;5032111;28;20000;-71
2023/04/18 01:32:05;;;;;;;;;;;333.30;2329.60;;;;;;5031762;28;20285;-71
2023/04/18 01:34:31;;;;;;;;;;;333.20;2329.60;;;;;;5031904;28;19913;-71
2023/04/18 01:36:56;;;;;;;;;;;333.30;2329.60;;;;;;5031939;28;19905;-71
2023/04/18 01:39:22;;;;;;;;;;;333.30;2099.20;;;;;;5031791;28;20284;-70
2023/04/18 01:41:48;;;;;;;;;;;333.30;2329.60;;;;;;5032020;28;19990;-71
2023/04/18 01:44:13;;;;;;;;;;;333.30;2329.60;;;;;;5032082;28;20270;-71
2023/04/18 01:46:39;;;;;;;;;;;333.30;2329.60;;;;;;5032239;28;19956;-78
2023/04/18 01:49:05;;;;;;;;;;;333.40;2329.60;;;;;;5032917;28;19905;-71
2023/04/18 01:51:30;;;;;;;;;;;333.40;2329.60;;;;;;5032963;28;19967;-70
2023/04/18 01:53:56;;;;;;;;;;;333.40;2329.60;;;;;;5032807;28;19912;-71
2023/04/18 01:56:21;;;;;;;;;;;333.40;2329.60;;;;;;5032951;28;20372;-70
2023/04/18 01:58:47;;;;;;;;;;;333.40;2329.60;;;;;;5032784;28;19948;-70
2023/04/18 02:01:13;;;;;;;;;;;333.40;2329.60;;;;;;5036225;28;19913;-70
2023/04/18 02:03:38;;;;;;;;;;;333.50;2329.60;;;;;;5036531;28;19959;-70
2023/04/18 02:06:05;;;;;;;;;;;333.50;2329.60;;;;;;5036446;28;20380;-74
2023/04/18 02:08:34;;;;;;;;;;;333.50;2329.60;;;;;;5036526;28;19905;-71
2023/04/18 02:11:00;;;;;;;;;;;333.50;2329.60;;;;;;5036326;28;19905;-71
2023/04/18 02:13:26;;;;;;;;;;;333.40;2329.60;;;;;;5036433;28;19915;-71
2023/04/18 02:15:51;;;;;;;;;;;333.40;2329.60;;;;;;5036308;28;19913;-72
2023/04/18 02:18:17;;;;;;;;;;;333.50;2329.60;;;;;;5036545;28;19912;-71
2023/04/18 02:20:43;;;;;;;;;;;333.50;2329.60;;;;;;5035153;28;20368;-70
2023/04/18 02:23:08;;;;;;;;;;;333.40;2329.60;;;;;;5036296;28;19908;-71
2023/04/18 02:25:34;;;;;;;;;;;333.40;2329.60;;;;;;5036044;28;19909;-71
2023/04/18 02:27:59;;;;;;;;;;;333.30;2329.60;;;;;;5036145;28;19905;-70
2023/04/18 02:30:25;;;;;;;;;;;333.30;2329.60;;;;;;5035991;28;19905;-70
2023/04/18 02:32:55;;;;;;;;;;;333.30;2329.60;;;;;;5035757;28;19921;-71
2023/04/18 02:35:21;;;;;;;;;;;333.20;2329.60;;;;;;5035996;28;20258;-71
2023/04/18 02:37:47;;;;;;;;;;;333.40;2329.60;;;;;;5035798;28;19904;-71
2023/04/18 02:40:12;;;;;;;;;;;333.20;2329.60;;;;;;5036115;28;19916;-70
2023/04/18 02:42:38;;;;;;;;;;;333.40;2329.60;;;;;;5035600;28;19963;-70
2023/04/18 02:45:04;;;;;;;;;;;333.30;2329.60;;;;;;5035902;28;20318;-71
2023/04/18 02:47:30;;;;;;;;;;;333.20;2329.60;;;;;;5035746;28;19905;-70
2023/04/18 02:49:55;;;;;;;;;;;333.20;2329.60;;;;;;5035899;28;19905;-70
2023/04/18 02:52:21;;;;;;;;;;;333.10;2329.60;;;;;;5035569;28;19913;-71
2023/04/18 02:54:46;;;;;;;;;;;333.10;2329.60;;;;;;5035712;28;20262;-71
2023/04/18 02:57:12;;;;;;;;;;;333.10;2329.60;;;;;;5034348;28;20383;-70
2023/04/18 02:59:37;;;;;;;;;;;333.10;2329.60;;;;;;5025561;28;19927;-71
2023/04/18 03:02:03;;;;;;;;;;;333.20;2329.60;;;;;;5041576;28;19915;-70
2023/04/18 03:04:29;;;;;;;;;;;333.10;2329.60;;;;;;5040923;28;19917;-70
2023/04/18 03:06:55;;;;;;;;;;;333.20;2329.60;;;;;;5028848;28;19905;-70
2023/04/18 03:09:20;;;;;;;;;;;333.20;2329.60;;;;;;5038850;28;20299;-70
2023/04/18 03:11:46;;;;;;;;;;;333.20;2329.60;;;;;;5028921;28;19912;-70
2023/04/18 03:14:11;;;;;;;;;;;333.00;2329.60;;;;;;5042358;28;19909;-70
2023/04/18 03:16:37;;;;;;;;;;;333.00;2329.60;;;;;;5046559;28;20292;-70
2023/04/18 03:19:03;;;;;;;;;;;333.00;2329.60;;;;;;5035838;28;19970;-70
2023/04/18 03:21:28;;;;;;;;;;;333.00;2329.60;;;;;;5026178;28;19911;-70
2023/04/18 03:23:54;;;;;;;;;;;333.00;2329.60;;;;;;5031686;28;19905;-70
2023/04/18 03:26:19;;;;;;;;;;;333.10;2329.60;;;;;;5036924;28;20349;-70
2023/04/18 03:28:45;;;;;;;;;;;333.20;2329.60;;;;;;5034199;28;19963;-70
2023/04/18 03:31:11;;;;;;;;;;;333.20;2329.60;;;;;;5027325;28;19912;-70
2023/04/18 03:33:38;;;;;;;;;;;333.10;2329.60;;;;;;5040532;28;19917;-70
2023/04/18 03:36:04;;;;;;;;;;;333.10;2329.60;;;;;;5024861;28;20003;-70
2023/04/18 03:38:30;;;;;;;;;;;333.00;2329.60;;;;;;5031035;28;19941;-70
2023/04/18 03:40:55;;;;;;;;;;;333.10;2329.60;;;;;;5036265;28;19937;-71
2023/04/18 03:43:21;;;;;;;;;;;333.00;2329.60;;;;;;5030372;28;19909;-71
2023/04/18 03:45:47;;;;;;;;;;;333.00;2329.60;;;;;;5036856;28;19912;-71
2023/04/18 03:48:13;;;;;;;;;;;333.00;2329.60;;;;;;5025361;28;20361;-70
2023/04/18 03:50:39;;;;;;;;;;;333.00;2329.60;;;;;;5028847;28;19905;-70
2023/04/18 03:53:04;;;;;;;;;;;333.20;2329.60;;;;;;5034904;28;19959;-70
2023/04/18 03:55:30;;;;;;;;;;;333.10;2329.60;;;;;;5034715;28;19913;-72
2023/04/18 03:57:57;;;;;;;;;;;333.10;2329.60;;;;;;5033961;28;20353;-71
2023/04/18 04:00:23;;;;;;;;;;;333.10;2329.60;;;;;;5034595;28;19909;-70
2023/04/18 04:02:49;;;;;;;;;;;333.10;2329.60;;;;;;5034365;28;19915;-71
2023/04/18 04:05:15;;;;;;;;;;;333.00;2329.60;;;;;;5034747;28;19996;-72
2023/04/18 04:07:40;;;;;;;;;;;333.00;2329.60;;;;;;5034241;28;19905;-71
2023/04/18 04:10:06;;;;;;;;;;;333.00;2329.60;;;;;;5034338;28;19986;-71
2023/04/18 04:12:32;;;;;;;;;;;333.00;2329.60;;;;;;5034211;28;19913;-71
2023/04/18 04:14:57;;;;;;;;;;;332.90;2329.60;;;;;;5034307;28;19913;-71
2023/04/18 04:17:23;;;;;;;;;;;332.90;2329.60;;;;;;5034744;28;19916;-71
2023/04/18 04:19:50;;;;;;;;;;;332.90;2329.60;;;;;;5035428;28;20361;-71
2023/04/18 04:22:15;;;;;;;;;;;332.80;2329.60;;;;;;5034342;28;19912;-71
2023/04/18 04:24:41;;;;;;;;;;;332.80;2329.60;;;;;;5034128;28;20273;-77
2023/04/18 04:27:07;;;;;;;;;;;332.80;2329.60;;;;;;5034196;28;20003;-71
2023/04/18 04:29:34;;;;;;;;;;;308.10;2304.00;;;;;;5034111;28;19905;-71
2023/04/18 04:31:59;;;;;;;;;;;332.80;2329.60;;;;;;5033752;28;20375;-71
2023/04/18 04:34:25;;;;;;;;;;;332.80;2329.60;;;;;;5033952;28;19964;-71
2023/04/18 04:36:52;;;;;;;;;;;332.90;2329.60;;;;;;5033842;28;20265;-71
2023/04/18 04:39:18;;;;;;;;;;;332.90;2329.60;;;;;;5033974;28;19950;-71
2023/04/18 04:41:45;;;;;;;;;;;333.10;2329.60;;;;;;5033681;28;19909;-71
2023/04/18 04:44:11;;;;;;;;;;;333.10;2329.60;;;;;;5034121;28;19912;-77
2023/04/18 04:46:39;;;;;;;;;;;333.00;2329.60;;;;;;5033707;28;19905;-71
2023/04/18 04:49:05;;;;;;;;;;;333.00;2329.60;;;;;;5033784;28;20270;-71
2023/04/18 04:51:30;;;;;;;;;;;333.30;2329.60;;;;;;5033810;28;19912;-71
2023/04/18 04:53:56;;;;;;;;;;;333.10;2329.60;;;;;;5033669;28;19920;-71
2023/04/18 04:56:22;;;;;;;;;;;333.20;2329.60;;;;;;5033566;28;19905;-75
2023/04/18 04:58:48;;;;;;;;;;;333.20;2329.60;;;;;;5033464;28;19905;-72
2023/04/18 05:01:13;;;;;;;;;;;333.20;2329.60;;;;;;5033378;28;19928;-74
2023/04/18 05:03:39;;;;;;;;;;;333.20;2329.60;;;;;;5033637;28;19909;-77
2023/04/18 05:06:04;;;;;;;;;;;333.30;2329.60;;;;;;5033462;28;19919;-71
2023/04/18 05:08:30;;;;;;;;;;;333.20;2329.60;;;;;;5033603;28;20262;-78
2023/04/18 05:10:55;;;;;;;;;;;333.30;2329.60;;;;;;5033285;28;19905;-72
2023/04/18 05:13:21;;;;;;;;;;;333.30;2329.60;;;;;;5033629;28;20388;-72
2023/04/18 05:15:47;;;;;;;;;;;333.40;2329.60;;;;;;5033341;28;19913;-77
2023/04/18 05:18:13;;;;;;;;;;;333.40;2329.60;;;;;;5033685;28;19959;-73
2023/04/18 05:20:39;;;;;;;;;;;333.40;2329.60;;;;;;5033289;28;19905;-77
2023/04/18 05:23:04;;;;;;;;;;;333.40;2329.60;;;;;;5033495;28;19992;-75
2023/04/18 05:25:30;;;;;;;;;;;333.50;2329.60;;;;;;5033267;28;19912;-78
2023/04/18 05:27:56;;;;;;;;;;;333.50;2329.60;;;;;;5033222;28;19905;-72
2023/04/18 05:30:21;;;;;;;;;;;333.50;2329.60;;;;;;5032956;28;20246;-77
2023/04/18 05:32:47;;;;;;;;;;;333.40;2329.60;;;;;;5033121;28;19975;-73
2023/04/18 05:35:13;;;;;;;;;;;333.30;2329.60;;;;;;5035019;28;20344;-75
2023/04/18 05:37:38;;;;;;;;;;;333.30;2329.60;;;;;;5037223;28;19930;-73
2023/04/18 05:40:04;;;;;;;;;;;333.20;2329.60;;;;;;5037016;28;19973;-73
2023/04/18 05:42:30;;;;;;;;;;;333.20;2329.60;;;;;;5037217;28;19945;-74
2023/04/18 05:44:56;;;;;;;;;;;333.20;2329.60;;;;;;5036974;28;19963;-73
2023/04/18 05:47:22;;;;;;;;;;;333.20;2329.60;;;;;;5037189;28;19931;-73
2023/04/18 05:49:48;;;;;;;;;;;333.30;2329.60;;;;;;5037094;28;19940;-73
2023/04/18 05:52:13;;;;;;;;;;;333.40;2329.60;;;;;;5037157;28;20373;-73
2023/04/18 05:54:40;;;;;;;;;;;333.50;2329.60;;;;;;5036767;28;19916;-73
2023/04/18 05:57:05;;;;;;;;;;;333.50;2329.60;;;;;;5036893;28;19955;-72
2023/04/18 05:59:31;;;;;;;;;;;333.40;2329.60;;;;;;5036463;28;19941;-71
2023/04/18 06:01:56;;;;;;;;;;;333.40;2329.60;;;;;;5035400;28;19955;-72
2023/04/18 06:04:22;;;;;;;;;;;333.60;2329.60;;;;;;5036724;28;19909;-73
2023/04/18 06:06:47;;;;;;;;;;;333.60;2329.60;;;;;;5036729;28;19936;-73
2023/04/18 06:09:13;;;;;;;;;;;333.70;2329.60;;;;;;5036562;28;19909;-74
2023/04/18 06:11:38;;;;;;;;;;;358.50;2329.60;;;;;;5036666;28;20345;-78
2023/04/18 06:14:04;;;;;;;;;;;358.50;2329.60;;;;;;5036265;28;20353;-72
2023/04/18 06:16:29;;;;;;;;;;;358.60;2329.60;;;;;;5036516;28;20254;-73
2023/04/18 06:18:56;;;;;;;;;;;358.60;2329.60;;;;;;5036303;28;19931;-72
2023/04/18 06:21:22;;;;;;;;;;;358.70;2329.60;;;;;;5036646;28;19905;-72
2023/04/18 06:23:47;;;;;;;;;;;358.60;2329.60;;;;;;5036125;28;19958;-72
2023/04/18 06:26:13;;;;;;;;;;;358.60;2329.60;;;;;;5036507;28;19909;-73
2023/04/18 06:28:38;;;;;;;;;;;358.50;2329.60;;;;;;5036019;28;19976;-73
2023/04/18 06:31:04;;;;;;;;;;;358.60;2329.60;;;;;;5036024;28;19909;-74
2023/04/18 06:33:30;;;;;;;;;;;358.70;2329.60;;;;;;5035983;28;19974;-75
2023/04/18 06:35:56;;;;;;;;;;;358.80;2329.60;;;;;;5036188;28;19927;-72
2023/04/18 06:38:21;;;;;;;;;;;358.90;2329.60;;;;;;5034644;28;19913;-73
2023/04/18 06:40:47;;;;;;;;;;;358.80;2329.60;;;;;;5036054;28;19905;-74
2023/04/18 06:43:12;;;;;;;;;;;358.90;2329.60;;;;;;5036169;28;19959;-74
2023/04/18 06:45:38;;;;;;;;;;;358.80;2329.60;;;;;;5035313;28;19941;-74
2023/04/18 06:48:04;;;;;;;;;;;358.80;2329.60;;;;;;5035342;28;20323;-73
2023/04/18 06:50:29;;;;;;;;;;;358.80;2329.60;;;;;;5035981;28;19905;-73
2023/04/18 06:52:55;;;;;;;;;;;358.80;2329.60;;;;;;5035842;28;20334;-74
2023/04/18 06:55:21;;;;;;;;;;;359.00;2329.60;;;;;;5035712;28;19917;-75
2023/04/18 06:57:46;;;;;;;;;;;359.00;2329.60;;;;;;5035759;28;20414;-73
2023/04/18 07:00:12;;;;;;;;;;;358.90;2329.60;;;;;;5035530;28;19912;-72
2023/04/18 07:02:38;;;;;;;;;;;359.00;2329.60;;;;;;5035468;28;19964;-74
2023/04/18 07:05:04;;;;;;;;;;;359.00;2329.60;;;;;;5035761;28;20375;-76
2023/04/18 07:07:30;;;;;;;;;;;358.90;2329.60;;;;;;5035542;28;19905;-72
2023/04/18 07:09:55;;;;;;;;;;;359.00;2329.60;;;;;;5035710;28;19905;-73
2023/04/18 07:12:21;;;;;;;;;;;358.90;2329.60;;;;;;5035716;28;19913;-76
2023/04/18 07:14:46;;;;;;;;;;;359.00;2329.60;;;;;;5035487;28;19960;-77
2023/04/18 07:17:12;;;;;;;;;;;359.00;2329.60;;;;;;5035130;28;20340;-74
2023/04/18 07:19:37;;;;;;;;;;;359.00;2329.60;;;;;;5035391;28;19909;-76
2023/04/18 07:22:03;;;;;;;;;;;359.20;2329.60;;;;;;5035272;28;19983;-73
2023/04/18 07:24:29;;;;;;;;;;;359.20;2329.60;;;;;;5035204;28;19912;-74
2023/04/18 07:26:54;;;;;;;;;;;359.20;2329.60;;;;;;5035303;28;19905;-73
2023/04/18 07:29:20;;;;;;;;;;;359.20;2329.60;;;;;;5035102;28;19948;-73
2023/04/18 07:31:46;;;;;;;;;;;359.30;2329.60;;;;;;5034801;28;19917;-73
2023/04/18 07:34:12;;;;;;;;;;;359.20;2329.60;;;;;;5035186;28;20047;-77
2023/04/18 07:36:38;;;;;;;;;;;359.20;2329.60;;;;;;5034975;28;19909;-73
2023/04/18 07:39:04;;;;;;;;;;;359.20;2329.60;;;;;;5033793;28;19916;-73
2023/04/18 07:41:30;;;;;;;;;;;359.20;2329.60;;;;;;5034662;28;19905;-72
2023/04/18 07:43:55;;;;;;;;;;;359.10;2329.60;;;;;;5036009;28;19960;-74
2023/04/18 07:46:21;;;;;;;;;;;359.30;2329.60;;;;;;5036795;28;19944;-73
2023/04/18 07:48:46;;;;;;;;;;;384.10;2329.60;;;;;;5035325;28;19909;-73
2023/04/18 07:51:12;;;;;;;;;;;384.10;2329.60;;;;;;5033322;28;19915;-75
2023/04/18 07:53:39;;;;;;;;;;;384.00;2329.60;;;;;;5034839;28;19955;-77
2023/04/18 07:56:05;;;;;;;;;;;384.00;2329.60;;;;;;5034688;28;20007;-73
2023/04/18 07:58:33;;;;;;;;;;;384.00;2329.60;;;;;;5034167;28;19975;-73
2023/04/18 08:00:58;;;;;;;;;;;384.00;2329.60;;;;;;5034370;28;19915;-72
2023/04/18 08:03:24;;;;;;;;;;;359.30;2329.60;;;;;;5034662;28;19999;-73
2023/04/18 08:05:50;;;;;;;;;;;359.30;2329.60;;;;;;5034491;28;19955;-72
2023/04/18 08:08:16;;;;;;;;;;;359.20;2329.60;;;;;;5034361;28;19905;-71
2023/04/18 08:10:41;;;;;;;;;;;359.10;2329.60;;;;;;5034253;28;19919;-77
2023/04/18 08:13:07;;;;;;;;;;;359.10;2329.60;;;;;;5034618;28;20008;-72
2023/04/18 08:15:33;;;;;;;;;;;359.20;2329.60;;;;;;5033958;28;19913;-74
2023/04/18 08:17:59;;;;;;;;;;;359.20;2329.60;;;;;;5034298;28;20368;-73
2023/04/18 08:20:24;;;;;;;;;;;359.10;2329.60;;;;;;5034117;28;20368;-72
2023/04/18 08:22:50;;;;;;;;;;;359.10;2329.60;;;;;;5034483;28;19905;-74
2023/04/18 08:25:16;;;;;;;;;;;359.20;2329.60;;;;;;5034204;28;19905;-74
2023/04/18 08:27:42;;;;;;;;;;;359.20;2329.60;;;;;;5034513;28;19905;-74
2023/04/18 08:30:08;;;;;;;;;;;359.30;2329.60;;;;;;5033803;28;19909;-72
2023/04/18 08:32:34;;;;;;;;;;;384.00;2329.60;;;;;;5033792;28;20027;-72
2023/04/18 08:35:00;;;;;;;;;;;384.00;2329.60;;;;;;5033731;28;20284;-72
2023/04/18 08:37:27;;;;;;;;;;;384.00;2329.60;;;;;;5034084;28;19925;-72
2023/04/18 08:39:52;;;;;;;;;;;384.10;2329.60;;;;;;5033847;28;19915;-73
2023/04/18 08:42:18;;;;;;;;;;;384.00;2329.60;;;;;;5033885;28;19912;-73
2023/04/18 08:44:47;;;;;;;;;;;384.00;2329.60;;;;;;5033697;28;19959;-73
2023/04/18 08:47:13;;;;;;;;;;;359.30;2329.60;;;;;;5033884;28;19905;-73
2023/04/18 08:49:39;;;;;;;;;;;359.30;2329.60;;;;;;5033598;28;19912;-72
2023/04/18 08:52:24;;;;;;;;;;;359.20;2329.60;;;;;;5033724;28;20273;-73
2023/04/18 08:54:50;;;;;;;;;;;359.20;2329.60;;;;;;5033285;28;19917;-74
2023/04/18 08:57:17;;;;;;;;;;;359.30;2329.60;;;;;;5033733;28;19905;-73
2023/04/18 08:59:45;;;;;;;;;;;359.30;2329.60;;;;;;5033354;28;19948;-74
2023/04/18 09:02:11;;;;;;;;;;;359.30;2329.60;;;;;;5033365;28;20361;-73
2023/04/18 09:04:38;;;;;;;;;;;359.20;2329.60;;;;;;5033480;28;19909;-74
2023/04/18 09:07:08;;;;;;;;;;;359.30;2329.60;;;;;;5033571;28;19909;-74
2023/04/18 09:09:46;;;;;;;;;;;384.00;2329.60;;;;;;5032724;28;19909;-74
2023/04/18 09:12:17;;;;;;;;;;;384.10;2329.60;;;;;;5033469;28;20050;-73
2023/04/18 09:14:44;;;;;;;;;;;384.00;2329.60;;;;;;5033334;28;19959;-73
2023/04/18 09:17:12;;;;;;;;;;;384.00;2329.60;;;;;;5033314;28;19912;-74
2023/04/18 09:19:44;;;;;;;;;;;384.20;2329.60;;;;;;5033423;28;19905;-73
2023/04/18 09:22:09;;;;;;;;;;;384.30;2329.60;;;;;;5033630;28;19999;-72
2023/04/18 09:24:36;;;;;;;;;;;384.30;2329.60;;;;;;5033375;28;19959;-73
2023/04/18 09:27:02;;;;;;;;;;;384.40;2329.60;;;;;;5033265;28;19959;-73
2023/04/18 09:29:40;;;;;;;;;;;384.50;2329.60;;;;;;5033267;28;19905;-72
2023/04/18 09:32:06;;;;;;;;;;;384.60;2329.60;;;;;;5033012;28;19924;-72
2023/04/18 09:34:32;;;;;;;;;;;384.40;2329.60;;;;;;5033157;28;19917;-73
2023/04/18 09:37:08;;;;;;;;;;;384.40;2329.60;;;;;;5033214;28;19905;-73
2023/04/18 09:39:35;;;;;;;;;;;384.40;2329.60;;;;;;5033286;28;19913;-72
2023/04/18 09:42:01;;;;;;;;;;;384.50;2329.60;;;;;;5033210;28;19905;-73
2023/04/18 09:44:27;;;;;;;;;;;384.50;2329.60;;;;;;5033090;28;20365;-73
2023/04/18 09:46:52;;;;;;;;;;;384.50;2329.60;;;;;;5033069;28;19905;-76
2023/04/18 09:49:19;;;;;;;;;;;384.20;2329.60;;;;;;5033110;28;20353;-73
2023/04/18 09:51:45;;;;;;;;;;;384.20;2329.60;;;;;;5033793;28;20281;-72
2023/04/18 09:54:13;;;;;;;;;;;384.00;2329.60;;;;;;5033170;28;19906;-71
2023/04/18 09:56:41;;;;;;;;;;;359.20;2329.60;;;;;;5033087;28;19909;-70
2023/04/18 09:59:07;;;;;;;;;;;359.10;2329.60;;;;;;5032829;28;19912;-71
2023/04/18 10:01:33;;;;;;;;;;;359.00;2329.60;;;;;;5032528;28;19905;-71
2023/04/18 10:04:00;;;;;;;;;;;359.00;2329.60;;;;;;5032868;28;19920;-71
2023/04/18 10:06:27;;;;;;;;;;;359.10;2329.60;;;;;;5033041;28;20003;-74
2023/04/18 10:08:53;;;;;;;;;;;359.10;2329.60;;;;;;5033070;28;19960;-77
2023/04/18 10:11:19;;;;;;;;;;;359.10;2329.60;;;;;;5033009;28;20012;-71
2023/04/18 10:13:46;;;;;;;;;;;359.20;2329.60;;;;;;5032684;28;19996;-71
2023/04/18 10:16:13;;;;;;;;;;;359.30;2329.60;;;;;;5032751;28;19913;-71
2023/04/18 10:18:39;;;;;;;;;;;384.10;2329.60;;;;;;5032864;28;19909;-77
2023/04/18 10:21:04;;;;;;;;;;;384.30;2329.60;;;;;;5034410;28;20012;-72
2023/04/18 10:23:33;;;;;;;;;;;384.40;2329.60;;;;;;5036420;28;19905;-72
2023/04/18 10:25:59;;;;;;;;;;;384.50;2329.60;;;;;;5036244;28;19909;-72
2023/04/18 10:28:26;;;;;;;;;;;384.70;2329.60;;;;;;5036061;28;19912;-72
2023/04/18 10:30:53;;;;;;;;;;;384.90;2329.60;;;;;;5035380;28;19909;-71
2023/04/18 10:33:22;;;;;;;;;;;384.90;2329.60;;;;;;5035905;28;19920;-71
2023/04/18 10:36:01;;;;;;;;;;;384.90;2329.60;;;;;;5036180;28;20422;-73
2023/04/18 10:38:27;;;;;;;;;;;409.70;2355.20;;;;;;5035986;28;20475;-74
2023/04/18 10:41:11;;;;;;;;;;;409.60;2355.20;;;;;;5035990;28;19909;-73
2023/04/18 10:43:55;;;;;;;;;;;409.70;2355.20;;;;;;5035972;28;19987;-73
2023/04/18 10:46:21;;;;;;;;;;;409.80;2355.20;;;;;;5036029;28;19913;-73
2023/04/18 10:49:06;;;;;;;;;;;409.80;2355.20;;;;;;5035932;28;19905;-75
2023/04/18 10:51:32;;;;;;;;;;;409.80;2355.20;;;;;;5035751;28;19912;-74
2023/04/18 10:53:58;;;;;;;;;;;409.90;2355.20;;;;;;5035665;28;21411;-73
2023/04/18 10:56:25;;;;;;;;;;;409.90;2355.20;;;;;;5036085;28;19917;-75
2023/04/18 10:58:51;;;;;;;;;;;409.90;2355.20;;;;;;5035715;28;19925;-72
2023/04/18 11:01:29;;;;;;;;;;;409.80;2355.20;;;;;;5035414;28;19916;-72
2023/04/18 11:03:55;;;;;;;;;;;409.80;2355.20;;;;;;5035124;28;20300;-71
2023/04/18 11:06:21;;;;;;;;;;;409.70;2355.20;;;;;;5035676;28;19912;-72
2023/04/18 11:08:47;;;;;;;;;;;409.70;2355.20;;;;;;5032154;28;19906;-71
2023/04/18 11:11:13;;;;;;;;;;;384.90;2329.60;;;;;;5032250;28;19988;-72
2023/04/18 11:13:57;;;;;;;;;;;384.80;2329.60;;;;;;5040041;28;19951;-72
2023/04/18 11:16:27;;;;;;;;;;;384.90;2329.60;;;;;;5035811;28;19917;-72
2023/04/18 11:18:53;;;;;;;;;;;384.90;2329.60;;;;;;5027462;28;19906;-71
2023/04/18 11:21:19;;;;;;;;;;;409.60;2355.20;;;;;;5038368;28;19912;-73
2023/04/18 11:23:45;;;;;;;;;;;409.70;2355.20;;;;;;5034872;28;19908;-72
2023/04/18 11:26:16;;;;;;;;;;;409.70;2355.20;;;;;;5043059;28;19905;-73
2023/04/18 11:28:41;;;;;;;;;;;409.70;2355.20;;;;;;5037477;28;19951;-70
2023/04/18 11:31:07;;;;;;;;;;;409.70;2355.20;;;;;;5035555;28;19905;-71
2023/04/18 11:33:33;;;;;;;;;;;409.70;2355.20;;;;;;5026972;28;20344;-72
2023/04/18 11:35:58;;;;;;;;;;;409.70;2355.20;;;;;;5027469;28;19913;-72
2023/04/18 11:38:30;;;;;;;;;;;409.70;2355.20;;;;;;5029055;28;19910;-72
2023/04/18 11:40:56;;;;;;;;;;;409.80;2355.20;;;;;;5034595;28;20358;-72
2023/04/18 11:43:22;;;;;;;;;;;409.70;2355.20;;;;;;5036349;28;19905;-72
2023/04/18 11:45:54;;;;;;;;;;;409.70;2355.20;;;;;;5026467;28;20337;-71
2023/04/18 11:48:20;;;;;;;;;;;409.80;2355.20;;;;;;5028330;28;20015;-72
2023/04/18 11:50:46;;;;;;;;;;;409.70;2355.20;;;;;;5034727;28;20400;-74
2023/04/18 11:53:11;;;;;;;;;;;409.70;2355.20;;;;;;5027482;28;19905;-73
2023/04/18 11:55:37;;;;;;;;;;;409.90;2355.20;;;;;;5028115;28;19913;-72
2023/04/18 11:58:03;;;;;;;;;;;409.80;2355.20;;;;;;5043906;28;19905;-73
2023/04/18 12:00:40;;;;;;;;;;;409.70;2355.20;;;;;;5033995;28;20448;-72
2023/04/18 12:03:08;;;;;;;;;;;409.80;2355.20;;;;;;5039850;28;20396;-71
2023/04/18 12:05:35;;;;;;;;;;;410.00;2355.20;;;;;;5032795;28;19913;-72
2023/04/18 12:08:12;;;;;;;;;;;410.00;2355.20;;;;;;5035799;28;19924;-72
2023/04/18 12:10:45;;;;;;;;;;;410.20;2355.20;;;;;;5037420;28;19913;-72
2023/04/18 12:13:10;;;;;;;;;;;410.30;2355.20;;;;;;5023634;28;19951;-72
2023/04/18 12:15:37;;;;;;;;;;;410.50;2355.20;;;;;;5036173;28;19913;-71
2023/04/18 12:18:03;;;;;;;;;;;410.50;2355.20;;;;;;5025173;28;19905;-73
2023/04/18 12:20:36;;;;;;;;;;;435.50;2355.20;;;;;;5024056;28;19913;-73
2023/04/18 12:23:02;;;;;;;;;;;435.80;2355.20;;;;;;5029363;28;19905;-72
2023/04/18 12:25:28;;;;;;;;;;;435.90;2355.20;;;;;;5027340;28;19905;-73
2023/04/18 12:28:02;;;;;;;;;;;461.00;2380.80;;;;;;5032746;28;20349;-73
2023/04/18 12:30:29;;;;;;;;;;;461.20;2380.80;;;;;;5036850;28;19913;-72
2023/04/18 12:33:00;;;;;;;;;;;461.20;2380.80;;;;;;5024919;28;20019;-72
2023/04/18 12:35:25;;;;;;;;;;;461.20;2380.80;;;;;;5018327;28;19913;-71
2023/04/18 12:37:52;;;;;;;;;;;461.20;2380.80;;;;;;5023475;28;19905;-73
2023/04/18 12:40:18;;;;;;;;;;;461.40;2380.80;;;;;;5028500;28;19996;-73
2023/04/18 12:42:45;;;;;;;;;;;461.50;2380.80;;;;;;5032144;28;19908;-72
2023/04/18 12:45:10;;;;;;;;;;;461.50;2380.80;;;;;;5036165;28;19905;-72
2023/04/18 12:47:37;;;;;;;;;;;461.30;2380.80;;;;;;5038281;28;20349;-73
2023/04/18 12:50:02;;;;;;;;;;;461.00;2380.80;;;;;;5030189;28;19951;-73
2023/04/18 12:52:29;;;;;;;;;;;460.90;2380.80;;;;;;5038530;28;19905;-72
2023/04/18 12:54:55;;;;;;;;;;;436.10;2355.20;;;;;;5032759;28;20419;-73
2023/04/18 12:57:21;;;;;;;;;;;460.80;2380.80;;;;;;5043815;28;19948;-72
2023/04/18 12:59:46;;;;;;;;;;;460.90;2380.80;;;;;;5026142;28;20343;-72
2023/04/18 13:02:12;;;;;;;;;;;460.80;2380.80;;;;;;5033255;28;19992;-73
2023/04/18 13:04:38;;;;;;;;;;;460.90;2380.80;;;;;;5028015;28;19952;-72
2023/04/18 13:07:03;;;;;;;;;;;460.90;2380.80;;;;;;5028903;28;20007;-72
2023/04/18 13:09:30;;;;;;;;;;;460.90;2380.80;;;;;;5027375;28;19904;-71
2023/04/18 13:11:55;;;;;;;;;;;461.10;2380.80;;;;;;5027902;28;19912;-72
2023/04/18 13:14:21;;;;;;;;;;;461.50;2380.80;;;;;;5036561;28;19909;-72
2023/04/18 13:16:47;;;;;;;;;;;461.40;2380.80;;;;;;5029573;28;19905;-73
2023/04/18 13:19:13;;;;;;;;;;;461.50;2380.80;;;;;;5037258;28;19913;-73
2023/04/18 13:21:38;;;;;;;;;;;461.40;2380.80;;;;;;5034938;28;19905;-73
2023/04/18 13:24:04;;;;;;;;;;;461.40;2380.80;;;;;;5030972;28;20396;-73
2023/04/18 13:26:34;;;;;;;;;;;461.20;2380.80;;;;;;5035240;28;20387;-75
2023/04/18 13:29:00;;;;;;;;;;;461.00;2380.80;;;;;;5036718;28;19905;-74
2023/04/18 13:31:26;;;;;;;;;;;461.10;2380.80;;;;;;5030627;28;19916;-73
2023/04/18 13:33:51;;;;;;;;;;;461.10;2380.80;;;;;;5031589;28;20281;-72
2023/04/18 13:36:17;;;;;;;;;;;461.00;2380.80;;;;;;5036231;28;19990;-72
2023/04/18 13:38:42;;;;;;;;;;;460.90;2380.80;;;;;;5025563;28;19905;-73